createdAt,value
2019-04-28T00:00:46.177Z,1012.32
2019-04-28T00:01:46.242Z,1012.32
2019-04-28T00:02:46.322Z,1012.30
2019-04-28T00:03:46.361Z,1012.27
2019-04-28T00:04:46.428Z,1012.32
2019-04-28T00:05:46.497Z,1012.28
2019-04-28T00:06:46.544Z,1012.33
2019-04-28T00:07:46.609Z,1012.29
2019-04-28T00:08:46.669Z,1012.30
2019-04-28T00:09:46.736Z,1012.26
2019-04-28T00:10:46.800Z,1012.23
2019-04-28T00:11:46.852Z,1012.29
2019-04-28T00:12:46.918Z,1012.22
2019-04-28T00:13:46.981Z,1012.25
2019-04-28T00:14:47.052Z,1012.29
2019-04-28T00:15:47.113Z,1012.24
2019-04-28T00:16:47.165Z,1012.29
2019-04-28T00:17:47.226Z,1012.25
2019-04-28T00:18:47.293Z,1012.23
2019-04-28T00:19:47.360Z,1012.24
2019-04-28T00:20:47.418Z,1012.22
2019-04-28T00:21:47.484Z,1012.25
2019-04-28T00:22:47.536Z,1012.24
2019-04-28T00:23:47.598Z,1012.26
2019-04-28T00:24:47.668Z,1012.29
2019-04-28T00:25:47.731Z,1012.29
2019-04-28T00:26:47.786Z,1012.28
2019-04-28T00:27:47.842Z,1012.26
2019-04-28T00:28:47.907Z,1012.32
2019-04-28T00:29:47.975Z,1012.32
2019-04-28T00:30:48.036Z,1012.29
2019-04-28T00:31:48.089Z,1012.30
2019-04-28T00:32:48.154Z,1012.33
2019-04-28T00:33:48.213Z,1012.29
2019-04-28T00:34:48.454Z,1012.26
2019-04-28T00:35:48.337Z,1012.25
2019-04-28T00:36:48.398Z,1012.31
2019-04-28T00:37:48.463Z,1012.33
2019-04-28T00:38:48.526Z,1012.30
2019-04-28T00:39:48.593Z,1012.32
2019-04-28T00:40:48.655Z,1012.31
2019-04-28T00:41:48.711Z,1012.28
2019-04-28T00:42:48.774Z,1012.30
2019-04-28T00:43:48.830Z,1012.31
2019-04-28T00:44:48.903Z,1012.28
2019-04-28T00:45:48.963Z,1012.29
2019-04-28T00:46:51.034Z,1012.25
2019-04-28T00:47:50.938Z,1012.26
2019-04-28T00:48:50.753Z,1012.27
2019-04-28T00:49:49.306Z,1012.26
2019-04-28T00:50:49.267Z,1012.28
2019-04-28T00:51:50.899Z,1012.27
2019-04-28T00:52:49.386Z,1012.25
2019-04-28T00:53:50.938Z,1012.31
2019-04-28T00:54:49.519Z,1012.26
2019-04-28T00:55:49.580Z,1012.28
2019-04-28T00:56:51.584Z,1012.28
2019-04-28T00:57:50.940Z,1012.26
2019-04-28T00:58:51.584Z,1012.31
2019-04-28T00:59:56.682Z,1012.27
2019-04-28T01:00:51.356Z,1012.25
2019-04-28T01:01:51.270Z,1012.27
2019-04-28T01:02:51.001Z,1012.27
2019-04-28T01:03:51.999Z,1012.30
2019-04-28T01:04:51.444Z,1012.27
2019-04-28T01:05:50.860Z,1012.25
2019-04-28T01:06:52.004Z,1012.27
2019-04-28T01:07:51.119Z,1012.24
2019-04-28T01:08:51.645Z,1012.28
2019-04-28T01:09:51.656Z,1012.25
2019-04-28T01:10:50.844Z,1012.31
2019-04-28T01:11:51.135Z,1012.23
2019-04-28T01:12:51.026Z,1012.25
2019-04-28T01:13:51.782Z,1012.27
2019-04-28T01:14:52.920Z,1012.27
2019-04-28T01:15:50.815Z,1012.28
2019-04-28T01:16:51.556Z,1012.28
2019-04-28T01:17:50.935Z,1012.27
2019-04-28T01:18:50.992Z,1012.27
2019-04-28T01:19:51.415Z,1012.27
2019-04-28T01:20:51.128Z,1012.29
2019-04-28T01:21:51.177Z,1012.29
2019-04-28T01:22:51.246Z,1012.29
2019-04-28T01:23:51.299Z,1012.33
2019-04-28T01:24:51.372Z,1012.31
2019-04-28T01:25:51.433Z,1012.32
2019-04-28T01:26:51.488Z,1012.30
2019-04-28T01:27:51.553Z,1012.27
2019-04-28T01:28:51.613Z,1012.26
2019-04-28T01:29:52.887Z,1012.24
2019-04-28T01:30:51.742Z,1012.29
2019-04-28T01:31:51.798Z,1012.26
2019-04-28T01:32:51.857Z,1012.24
2019-04-28T01:33:51.925Z,1012.24
2019-04-28T01:34:51.988Z,1012.21
2019-04-28T01:35:52.048Z,1012.27
2019-04-28T01:36:52.186Z,1012.27
2019-04-28T01:37:52.166Z,1012.25
2019-04-28T01:38:52.230Z,1012.24
2019-04-28T01:39:52.288Z,1012.24
2019-04-28T01:40:52.394Z,1012.22
2019-04-28T01:41:52.414Z,1012.24
2019-04-28T01:42:52.477Z,1012.24
2019-04-28T01:43:52.537Z,1012.22
2019-04-28T01:44:52.598Z,1012.22
2019-04-28T01:45:52.670Z,1012.26
2019-04-28T01:46:52.730Z,1012.21
2019-04-28T01:47:52.782Z,1012.24
2019-04-28T01:48:52.845Z,1012.26
2019-04-28T01:49:52.906Z,1012.28
2019-04-28T01:50:52.982Z,1012.24
2019-04-28T01:51:53.037Z,1012.29
2019-04-28T01:52:53.090Z,1012.29
2019-04-28T01:53:53.153Z,1012.27
2019-04-28T01:54:53.214Z,1012.31
2019-04-28T01:55:53.442Z,1012.33
2019-04-28T01:56:53.338Z,1012.28
2019-04-28T01:57:53.398Z,1012.32
2019-04-28T01:58:53.464Z,1012.32
2019-04-28T01:59:53.524Z,1012.35
2019-04-28T02:00:53.618Z,1012.33
2019-04-28T02:01:53.653Z,1012.33
2019-04-28T02:02:53.711Z,1012.33
2019-04-28T02:03:53.770Z,1012.31
2019-04-28T02:04:53.835Z,1012.31
2019-04-28T02:05:53.902Z,1012.32
2019-04-28T02:06:53.963Z,1012.36
2019-04-28T02:07:54.017Z,1012.32
2019-04-28T02:08:54.078Z,1012.35
2019-04-28T02:09:54.139Z,1012.38
2019-04-28T02:10:54.442Z,1012.33
2019-04-28T02:11:54.262Z,1012.39
2019-04-28T02:12:54.327Z,1012.37
2019-04-28T02:13:54.386Z,1012.36
2019-04-28T02:14:54.447Z,1012.36
2019-04-28T02:15:54.514Z,1012.43
2019-04-28T02:16:54.579Z,1012.41
2019-04-28T02:17:54.636Z,1012.43
2019-04-28T02:18:54.695Z,1012.42
2019-04-28T02:19:54.758Z,1012.40
2019-04-28T02:20:54.827Z,1012.43
2019-04-28T02:21:54.895Z,1012.46
2019-04-28T02:22:54.939Z,1012.46
2019-04-28T02:23:55.006Z,1012.45
2019-04-28T02:24:55.063Z,1012.50
2019-04-28T02:25:55.139Z,1012.46
2019-04-28T02:26:55.186Z,1012.42
2019-04-28T02:27:57.146Z,1012.46
2019-04-28T02:28:55.312Z,1012.49
2019-04-28T02:29:55.373Z,1012.50
2019-04-28T02:30:55.444Z,1012.51
2019-04-28T02:31:55.501Z,1012.48
2019-04-28T02:32:55.557Z,1012.52
2019-04-28T02:33:55.616Z,1012.56
2019-04-28T02:34:55.683Z,1012.53
2019-04-28T02:35:55.748Z,1012.54
2019-04-28T02:36:55.809Z,1012.55
2019-04-28T02:37:55.866Z,1012.57
2019-04-28T02:38:55.925Z,1012.57
2019-04-28T02:39:55.988Z,1012.56
2019-04-28T02:40:56.049Z,1012.50
2019-04-28T02:41:56.137Z,1012.55
2019-04-28T02:42:56.172Z,1012.57
2019-04-28T02:43:56.233Z,1012.58
2019-04-28T02:44:56.295Z,1012.56
2019-04-28T02:45:56.357Z,1012.57
2019-04-28T02:46:56.430Z,1012.58
2019-04-28T02:47:56.485Z,1012.57
2019-04-28T02:48:56.541Z,1012.56
2019-04-28T02:49:56.602Z,1012.51
2019-04-28T02:50:56.665Z,1012.48
2019-04-28T02:51:56.737Z,1012.53
2019-04-28T02:52:56.800Z,1012.51
2019-04-28T02:53:56.851Z,1012.57
2019-04-28T02:54:56.910Z,1012.57
2019-04-28T02:55:56.974Z,1012.58
2019-04-28T02:56:57.041Z,1012.54
2019-04-28T02:57:57.114Z,1012.56
2019-04-28T02:58:57.158Z,1012.58
2019-04-28T02:59:57.221Z,1012.55
2019-04-28T03:01:08.989Z,1012.59
2019-04-28T03:01:57.518Z,1012.57
2019-04-28T03:02:57.407Z,1012.56
2019-04-28T03:03:57.465Z,1012.56
2019-04-28T03:05:00.098Z,1012.55
2019-04-28T03:05:57.586Z,1012.53
2019-04-28T03:06:57.659Z,1012.53
2019-04-28T03:07:57.718Z,1012.53
2019-04-28T03:09:00.206Z,1012.54
2019-04-28T03:09:57.838Z,1012.51
2019-04-28T03:11:00.624Z,1012.55
2019-04-28T03:11:57.962Z,1012.54
2019-04-28T03:13:00.779Z,1012.52
2019-04-28T03:14:00.768Z,1012.53
2019-04-28T03:15:00.651Z,1012.53
2019-04-28T03:15:58.204Z,1012.56
2019-04-28T03:17:00.901Z,1012.57
2019-04-28T03:17:58.327Z,1012.56
2019-04-28T03:19:00.937Z,1012.57
2019-04-28T03:20:01.080Z,1012.60
2019-04-28T03:21:03.603Z,1012.57
2019-04-28T03:22:01.046Z,1012.61
2019-04-28T03:23:00.894Z,1012.59
2019-04-28T03:24:01.101Z,1012.57
2019-04-28T03:25:00.921Z,1012.62
2019-04-28T03:26:01.233Z,1012.61
2019-04-28T03:27:00.605Z,1012.62
2019-04-28T03:28:00.604Z,1012.65
2019-04-28T03:29:01.039Z,1012.60
2019-04-28T03:30:00.804Z,1012.65
2019-04-28T03:31:03.341Z,1012.64
2019-04-28T03:32:22.065Z,1012.64
2019-04-28T03:33:05.983Z,1012.67
2019-04-28T03:34:03.442Z,1012.66
2019-04-28T03:35:03.155Z,1012.67
2019-04-28T03:36:03.703Z,1012.68
2019-04-28T03:37:00.321Z,1012.69
2019-04-28T03:38:01.253Z,1012.70
2019-04-28T03:39:00.741Z,1012.69
2019-04-28T03:40:00.524Z,1012.69
2019-04-28T03:41:01.013Z,1012.68
2019-04-28T03:42:00.200Z,1012.69
2019-04-28T03:43:02.828Z,1012.70
2019-04-28T03:44:00.606Z,1012.70
2019-04-28T03:45:00.994Z,1012.68
2019-04-28T03:46:00.731Z,1012.68
2019-04-28T03:47:03.022Z,1012.69
2019-04-28T03:48:00.408Z,1012.66
2019-04-28T03:49:00.926Z,1012.73
2019-04-28T03:50:00.351Z,1012.68
2019-04-28T03:51:00.767Z,1012.69
2019-04-28T03:52:00.471Z,1012.67
2019-04-28T03:53:01.173Z,1012.71
2019-04-28T03:54:02.939Z,1012.68
2019-04-28T03:55:00.782Z,1012.64
2019-04-28T03:56:01.577Z,1012.72
2019-04-28T03:57:01.248Z,1012.66
2019-04-28T03:58:01.050Z,1012.65
2019-04-28T03:59:00.854Z,1012.66
2019-04-28T04:00:01.799Z,1012.65
2019-04-28T04:01:03.284Z,1012.68
2019-04-28T04:02:03.433Z,1012.69
2019-04-28T04:03:01.097Z,1012.67
2019-04-28T04:04:03.454Z,1012.70
2019-04-28T04:05:03.943Z,1012.70
2019-04-28T04:06:01.273Z,1012.72
2019-04-28T04:07:01.585Z,1012.71
2019-04-28T04:08:01.400Z,1012.71
2019-04-28T04:09:01.464Z,1012.75
2019-04-28T04:10:01.552Z,1012.71
2019-04-28T04:11:01.587Z,1012.75
2019-04-28T04:12:03.588Z,1012.73
2019-04-28T04:13:01.709Z,1012.73
2019-04-28T04:14:01.955Z,1012.75
2019-04-28T04:15:03.991Z,1012.73
2019-04-28T04:16:01.889Z,1012.72
2019-04-28T04:17:01.949Z,1012.76
2019-04-28T04:18:02.013Z,1012.74
2019-04-28T04:19:02.106Z,1012.74
2019-04-28T04:20:02.134Z,1012.73
2019-04-28T04:21:02.202Z,1012.72
2019-04-28T04:22:02.263Z,1012.74
2019-04-28T04:23:02.320Z,1012.69
2019-04-28T04:24:02.389Z,1012.70
2019-04-28T04:25:02.451Z,1012.73
2019-04-28T04:26:02.502Z,1012.69
2019-04-28T04:27:02.568Z,1012.75
2019-04-28T04:28:03.715Z,1012.71
2019-04-28T04:29:02.695Z,1012.73
2019-04-28T04:30:02.776Z,1012.77
2019-04-28T04:31:03.417Z,1012.73
2019-04-28T04:32:15.892Z,1012.75
2019-04-28T04:33:02.930Z,1012.77
2019-04-28T04:34:03.558Z,1012.80
2019-04-28T04:35:03.063Z,1012.78
2019-04-28T04:36:03.122Z,1012.78
2019-04-28T04:37:03.180Z,1012.81
2019-04-28T04:38:03.240Z,1012.84
2019-04-28T04:39:03.306Z,1012.84
2019-04-28T04:40:03.466Z,1012.84
2019-04-28T04:41:03.428Z,1012.91
2019-04-28T04:42:03.488Z,1012.86
2019-04-28T04:43:03.547Z,1012.89
2019-04-28T04:44:03.614Z,1012.88
2019-04-28T04:45:03.675Z,1012.90
2019-04-28T04:46:03.748Z,1012.91
2019-04-28T04:47:03.790Z,1012.96
2019-04-28T04:48:03.859Z,1012.94
2019-04-28T04:49:03.920Z,1012.95
2019-04-28T04:50:03.989Z,1012.98
2019-04-28T04:51:04.047Z,1012.99
2019-04-28T04:52:04.102Z,1013.00
2019-04-28T04:53:04.161Z,1012.98
2019-04-28T04:54:04.226Z,1013.02
2019-04-28T04:55:04.294Z,1013.04
2019-04-28T04:56:04.442Z,1013.05
2019-04-28T04:57:04.411Z,1013.05
2019-04-28T04:58:04.468Z,1013.08
2019-04-28T04:59:04.530Z,1013.07
2019-04-28T05:00:04.594Z,1013.08
2019-04-28T05:01:04.674Z,1013.12
2019-04-28T05:02:04.722Z,1013.11
2019-04-28T05:03:04.784Z,1013.14
2019-04-28T05:04:04.836Z,1013.15
2019-04-28T05:05:04.903Z,1013.16
2019-04-28T05:06:04.962Z,1013.17
2019-04-28T05:07:05.028Z,1013.16
2019-04-28T05:08:05.084Z,1013.19
2019-04-28T05:09:05.144Z,1013.19
2019-04-28T05:10:05.208Z,1013.20
2019-04-28T05:11:05.280Z,1013.22
2019-04-28T05:12:05.332Z,1013.26
2019-04-28T05:13:05.388Z,1013.23
2019-04-28T05:14:07.475Z,1013.24
2019-04-28T05:15:05.513Z,1013.26
2019-04-28T05:16:05.581Z,1013.27
2019-04-28T05:17:05.645Z,1013.29
2019-04-28T05:18:05.699Z,1013.31
2019-04-28T05:19:05.759Z,1013.29
2019-04-28T05:20:05.825Z,1013.31
2019-04-28T05:21:05.890Z,1013.32
2019-04-28T05:22:05.952Z,1013.34
2019-04-28T05:23:06.005Z,1013.33
2019-04-28T05:24:09.267Z,1013.35
2019-04-28T05:25:06.132Z,1013.34
2019-04-28T05:26:07.959Z,1013.35
2019-04-28T05:27:06.252Z,1013.33
2019-04-28T05:28:06.314Z,1013.37
2019-04-28T05:29:06.374Z,1013.34
2019-04-28T05:30:06.438Z,1013.34
2019-04-28T05:31:06.505Z,1013.36
2019-04-28T05:32:06.565Z,1013.36
2019-04-28T05:33:06.616Z,1013.35
2019-04-28T05:34:08.059Z,1013.37
2019-04-28T05:35:06.746Z,1013.36
2019-04-28T05:36:06.809Z,1013.34
2019-04-28T05:37:06.878Z,1013.34
2019-04-28T05:38:06.929Z,1013.35
2019-04-28T05:39:06.990Z,1013.38
2019-04-28T05:40:07.050Z,1013.36
2019-04-28T05:41:07.205Z,1013.38
2019-04-28T05:42:07.174Z,1013.39
2019-04-28T05:43:07.238Z,1013.41
2019-04-28T05:44:07.302Z,1013.41
2019-04-28T05:45:07.357Z,1013.43
2019-04-28T05:46:07.425Z,1013.42
2019-04-28T05:47:07.489Z,1013.45
2019-04-28T05:48:10.246Z,1013.43
2019-04-28T05:49:07.605Z,1013.46
2019-04-28T05:50:07.667Z,1013.44
2019-04-28T05:51:09.353Z,1013.44
2019-04-28T05:52:09.656Z,1013.43
2019-04-28T05:53:07.850Z,1013.41
2019-04-28T05:54:09.710Z,1013.43
2019-04-28T05:55:07.973Z,1013.44
2019-04-28T05:56:08.045Z,1013.48
2019-04-28T05:57:08.107Z,1013.48
2019-04-28T05:58:09.763Z,1013.45
2019-04-28T05:59:09.729Z,1013.45
2019-04-28T06:00:08.283Z,1013.45
2019-04-28T06:01:10.255Z,1013.47
2019-04-28T06:02:10.348Z,1013.48
2019-04-28T06:03:09.691Z,1013.50
2019-04-28T06:04:09.395Z,1013.49
2019-04-28T06:05:10.172Z,1013.49
2019-04-28T06:06:10.214Z,1013.54
2019-04-28T06:07:10.088Z,1013.56
2019-04-28T06:08:10.024Z,1013.53
2019-04-28T06:09:10.266Z,1013.56
2019-04-28T06:10:10.181Z,1013.58
2019-04-28T06:11:09.732Z,1013.55
2019-04-28T06:12:10.289Z,1013.59
2019-04-28T06:13:09.966Z,1013.57
2019-04-28T06:14:09.934Z,1013.59
2019-04-28T06:15:11.773Z,1013.57
2019-04-28T06:16:09.586Z,1013.56
2019-04-28T06:17:10.877Z,1013.65
2019-04-28T06:18:10.441Z,1013.59
2019-04-28T06:19:10.301Z,1013.60
2019-04-28T06:20:11.569Z,1013.60
2019-04-28T06:21:09.584Z,1013.61
2019-04-28T06:22:09.648Z,1013.67
2019-04-28T06:23:09.700Z,1013.66
2019-04-28T06:24:09.766Z,1013.69
2019-04-28T06:25:09.837Z,1013.70
2019-04-28T06:26:09.891Z,1013.73
2019-04-28T06:27:09.958Z,1013.74
2019-04-28T06:28:10.018Z,1013.77
2019-04-28T06:29:10.072Z,1013.79
2019-04-28T06:30:10.138Z,1013.77
2019-04-28T06:31:10.212Z,1013.80
2019-04-28T06:32:10.256Z,1013.79
2019-04-28T06:33:10.320Z,1013.81
2019-04-28T06:34:10.380Z,1013.86
2019-04-28T06:35:10.447Z,1013.85
2019-04-28T06:36:10.512Z,1013.86
2019-04-28T06:37:10.577Z,1013.82
2019-04-28T06:38:10.631Z,1013.90
2019-04-28T06:39:10.692Z,1013.86
2019-04-28T06:40:10.752Z,1013.92
2019-04-28T06:41:10.828Z,1013.95
2019-04-28T06:42:10.889Z,1013.96
2019-04-28T06:43:10.941Z,1013.97
2019-04-28T06:44:11.004Z,1014.01
2019-04-28T06:45:11.064Z,1014.00
2019-04-28T06:46:11.141Z,1014.01
2019-04-28T06:47:11.188Z,1014.01
2019-04-28T06:48:11.254Z,1014.04
2019-04-28T06:49:11.374Z,1014.05
2019-04-28T06:50:11.379Z,1013.98
2019-04-28T06:51:11.445Z,1013.99
2019-04-28T06:52:11.508Z,1014.06
2019-04-28T06:53:11.567Z,1014.04
2019-04-28T06:54:11.632Z,1014.04
2019-04-28T06:55:11.689Z,1014.05
2019-04-28T06:56:11.757Z,1013.99
2019-04-28T06:57:11.824Z,1014.01
2019-04-28T06:58:11.876Z,1014.03
2019-04-28T06:59:11.937Z,1014.02
2019-04-28T07:00:12.000Z,1014.04
2019-04-28T07:01:12.071Z,1014.03
2019-04-28T07:02:12.133Z,1014.03
2019-04-28T07:03:22.587Z,1014.06
2019-04-28T07:04:12.252Z,1014.00
2019-04-28T07:05:12.314Z,1014.02
2019-04-28T07:06:12.382Z,1014.06
2019-04-28T07:07:12.445Z,1014.08
2019-04-28T07:08:13.939Z,1014.05
2019-04-28T07:09:12.585Z,1014.06
2019-04-28T07:10:12.626Z,1014.07
2019-04-28T07:11:12.695Z,1014.09
2019-04-28T07:12:12.755Z,1014.07
2019-04-28T07:13:12.814Z,1014.08
2019-04-28T07:14:12.877Z,1014.05
2019-04-28T07:15:12.938Z,1014.06
2019-04-28T07:16:13.006Z,1014.05
2019-04-28T07:17:13.070Z,1014.05
2019-04-28T07:18:13.126Z,1014.06
2019-04-28T07:19:13.189Z,1014.05
2019-04-28T07:20:13.250Z,1014.07
2019-04-28T07:21:13.314Z,1014.05
2019-04-28T07:22:13.459Z,1014.07
2019-04-28T07:23:13.442Z,1014.08
2019-04-28T07:24:13.503Z,1014.05
2019-04-28T07:25:13.566Z,1014.09
2019-04-28T07:26:13.627Z,1014.11
2019-04-28T07:27:13.695Z,1014.07
2019-04-28T07:28:13.767Z,1014.08
2019-04-28T07:29:13.814Z,1014.10
2019-04-28T07:30:13.879Z,1014.15
2019-04-28T07:31:13.940Z,1014.27
2019-04-28T07:32:14.012Z,1014.64
2019-04-28T07:33:14.080Z,1014.29
2019-04-28T07:34:14.131Z,1014.99
2019-04-28T07:35:14.194Z,1014.43
2019-04-28T07:36:14.255Z,1014.32
2019-04-28T07:37:14.406Z,1014.26
2019-04-28T07:38:14.384Z,1014.73
2019-04-28T07:39:14.446Z,1014.29
2019-04-28T07:40:14.508Z,1014.31
2019-04-28T07:41:14.571Z,1014.56
2019-04-28T07:42:14.643Z,1014.31
2019-04-28T07:43:14.718Z,1014.29
2019-04-28T07:44:14.764Z,1014.95
2019-04-28T07:45:14.828Z,1014.32
2019-04-28T07:46:14.896Z,1014.32
2019-04-28T07:47:14.965Z,1014.23
2019-04-28T07:48:15.026Z,1014.27
2019-04-28T07:49:15.084Z,1014.30
2019-04-28T07:50:15.147Z,1014.27
2019-04-28T07:51:15.211Z,1014.26
2019-04-28T07:52:15.367Z,1014.28
2019-04-28T07:53:15.339Z,1014.23
2019-04-28T07:54:15.404Z,1014.24
2019-04-28T07:55:15.471Z,1014.25
2019-04-28T07:56:15.533Z,1014.26
2019-04-28T07:57:15.601Z,1014.28
2019-04-28T07:58:15.664Z,1014.24
2019-04-28T07:59:15.725Z,1014.24
2019-04-28T08:00:15.783Z,1014.29
2019-04-28T08:01:15.849Z,1014.24
2019-04-28T08:02:15.925Z,1014.23
2019-04-28T08:03:15.983Z,1014.25
2019-04-28T08:04:16.036Z,1014.26
2019-04-28T08:05:16.100Z,1014.27
2019-04-28T08:06:16.166Z,1014.29
2019-04-28T08:07:16.324Z,1014.30
2019-04-28T08:08:16.294Z,1014.33
2019-04-28T08:09:16.354Z,1014.38
2019-04-28T08:10:16.419Z,1014.33
2019-04-28T08:11:16.480Z,1014.34
2019-04-28T08:12:16.553Z,1014.37
2019-04-28T08:13:16.618Z,1014.67
2019-04-28T08:14:19.466Z,1014.47
2019-04-28T08:15:16.737Z,1014.76
2019-04-28T08:16:16.793Z,1015.35
2019-04-28T08:17:16.871Z,1015.44
2019-04-28T08:18:16.940Z,1015.16
2019-04-28T08:19:16.989Z,1014.73
2019-04-28T08:20:17.055Z,1015.36
2019-04-28T08:21:17.120Z,1015.20
2019-04-28T08:22:17.193Z,1015.48
2019-04-28T08:23:17.249Z,1015.50
2019-04-28T08:24:17.315Z,1015.45
2019-04-28T08:25:17.381Z,1015.51
2019-04-28T08:26:17.449Z,1014.99
2019-04-28T08:27:17.520Z,1014.98
2019-04-28T08:28:17.589Z,1014.74
2019-04-28T08:29:17.649Z,1014.65
2019-04-28T08:30:17.719Z,1014.62
2019-04-28T08:31:17.777Z,1014.87
2019-04-28T08:32:17.858Z,1014.76
2019-04-28T08:33:17.927Z,1014.72
2019-04-28T08:34:17.992Z,1014.74
2019-04-28T08:35:18.054Z,1014.73
2019-04-28T08:36:18.118Z,1014.69
2019-04-28T08:37:18.206Z,1014.74
2019-04-28T08:38:18.250Z,1014.96
2019-04-28T08:39:18.318Z,1015.08
2019-04-28T08:40:18.385Z,1015.13
2019-04-28T08:41:18.455Z,1015.12
2019-04-28T08:42:18.535Z,1015.14
2019-04-28T08:43:18.595Z,1015.09
2019-04-28T08:44:18.650Z,1015.02
2019-04-28T08:45:18.719Z,1015.09
2019-04-28T08:46:18.787Z,1015.09
2019-04-28T08:47:18.862Z,1015.03
2019-04-28T08:48:18.932Z,1015.04
2019-04-28T08:49:18.994Z,1015.01
2019-04-28T08:50:19.058Z,1014.71
2019-04-28T08:51:19.130Z,1014.73
2019-04-28T08:52:19.282Z,1014.72
2019-04-28T08:53:19.267Z,1014.69
2019-04-28T08:54:19.335Z,1014.68
2019-04-28T08:55:19.403Z,1014.68
2019-04-28T08:56:19.473Z,1014.81
2019-04-28T08:57:19.555Z,1015.05
2019-04-28T08:58:19.615Z,1015.01
2019-04-28T08:59:19.681Z,1014.98
2019-04-28T09:00:19.750Z,1015.03
2019-04-28T09:01:19.814Z,1015.07
2019-04-28T09:02:19.891Z,1015.11
2019-04-28T09:03:19.964Z,1015.06
2019-04-28T09:04:20.020Z,1015.10
2019-04-28T09:05:20.094Z,1015.01
2019-04-28T09:06:20.155Z,1014.97
2019-04-28T09:07:20.236Z,1015.13
2019-04-28T09:08:20.292Z,1015.04
2019-04-28T09:09:20.364Z,1014.90
2019-04-28T09:10:20.431Z,1014.84
2019-04-28T09:11:20.500Z,1014.80
2019-04-28T09:12:20.581Z,1014.81
2019-04-28T09:13:20.648Z,1014.80
2019-04-28T09:14:20.703Z,1014.84
2019-04-28T09:15:20.777Z,1014.86
2019-04-28T09:16:20.843Z,1014.83
2019-04-28T09:17:20.916Z,1014.77
2019-04-28T09:18:20.984Z,1014.74
2019-04-28T09:19:21.045Z,1014.78
2019-04-28T09:20:21.107Z,1014.74
2019-04-28T09:21:21.177Z,1014.74
2019-04-28T09:22:21.244Z,1014.77
2019-04-28T09:23:21.325Z,1014.73
2019-04-28T09:24:21.372Z,1014.73
2019-04-28T09:25:21.441Z,1014.75
2019-04-28T09:26:21.503Z,1014.75
2019-04-28T09:27:21.573Z,1014.75
2019-04-28T09:28:21.645Z,1014.73
2019-04-28T09:29:21.710Z,1014.74
2019-04-28T09:30:21.769Z,1014.73
2019-04-28T09:31:21.833Z,1014.73
2019-04-28T09:32:21.896Z,1014.73
2019-04-28T09:33:21.969Z,1014.76
2019-04-28T09:34:28.146Z,1014.73
2019-04-28T09:35:22.092Z,1014.78
2019-04-28T09:36:22.157Z,1014.78
2019-04-28T09:37:22.223Z,1014.74
2019-04-28T09:38:22.302Z,1014.79
2019-04-28T09:39:23.523Z,1014.74
2019-04-28T09:40:22.423Z,1014.77
2019-04-28T09:41:22.483Z,1014.81
2019-04-28T09:42:22.544Z,1014.77
2019-04-28T09:43:22.617Z,1014.78
2019-04-28T09:44:22.683Z,1014.76
2019-04-28T09:45:22.744Z,1014.74
2019-04-28T09:46:22.802Z,1014.72
2019-04-28T09:47:22.869Z,1014.72
2019-04-28T09:48:23.007Z,1014.71
2019-04-28T09:49:23.003Z,1014.74
2019-04-28T09:50:23.061Z,1014.72
2019-04-28T09:51:23.127Z,1014.75
2019-04-28T09:52:23.189Z,1014.76
2019-04-28T09:53:23.730Z,1014.75
2019-04-28T09:54:23.318Z,1014.78
2019-04-28T09:55:23.382Z,1014.75
2019-04-28T09:56:23.445Z,1014.71
2019-04-28T09:57:23.510Z,1014.70
2019-04-28T09:58:23.578Z,1014.74
2019-04-28T09:59:23.662Z,1014.75
2019-04-28T10:00:23.705Z,1014.80
2019-04-28T10:01:23.769Z,1014.86
2019-04-28T10:02:23.834Z,1014.85
2019-04-28T10:03:25.361Z,1014.84
2019-04-28T10:04:23.970Z,1014.82
2019-04-28T10:05:24.042Z,1014.87
2019-04-28T10:06:24.093Z,1014.89
2019-04-28T10:07:24.159Z,1014.84
2019-04-28T10:08:24.219Z,1014.85
2019-04-28T10:09:24.286Z,1014.91
2019-04-28T10:10:24.365Z,1014.94
2019-04-28T10:11:30.706Z,1014.95
2019-04-28T10:12:27.351Z,1015.03
2019-04-28T10:13:24.540Z,1015.01
2019-04-28T10:14:24.608Z,1015.06
2019-04-28T10:15:24.683Z,1015.00
2019-04-28T10:16:24.745Z,1015.04
2019-04-28T10:17:24.796Z,1015.03
2019-04-28T10:18:24.863Z,1015.02
2019-04-28T10:19:24.930Z,1015.03
2019-04-28T10:20:25.000Z,1015.04
2019-04-28T10:21:25.068Z,1015.05
2019-04-28T10:22:25.120Z,1015.05
2019-04-28T10:23:25.189Z,1015.10
2019-04-28T10:24:25.256Z,1015.03
2019-04-28T10:25:25.369Z,1015.07
2019-04-28T10:26:25.382Z,1015.09
2019-04-28T10:27:25.449Z,1015.08
2019-04-28T10:28:25.512Z,1015.10
2019-04-28T10:29:25.577Z,1015.16
2019-04-28T10:30:25.648Z,1015.12
2019-04-28T10:31:25.715Z,1015.10
2019-04-28T10:32:25.769Z,1015.05
2019-04-28T10:33:25.839Z,1015.07
2019-04-28T10:34:25.904Z,1015.06
2019-04-28T10:35:25.977Z,1015.10
2019-04-28T10:36:26.040Z,1015.04
2019-04-28T10:37:26.099Z,1015.08
2019-04-28T10:38:26.169Z,1015.05
2019-04-28T10:39:26.234Z,1015.10
2019-04-28T10:40:26.399Z,1015.08
2019-04-28T10:41:26.372Z,1015.10
2019-04-28T10:42:26.434Z,1015.03
2019-04-28T10:43:26.492Z,1015.05
2019-04-28T10:44:26.566Z,1015.05
2019-04-28T10:45:26.634Z,1015.02
2019-04-28T10:46:26.698Z,1015.00
2019-04-28T10:47:26.760Z,1015.00
2019-04-28T10:48:26.821Z,1014.98
2019-04-28T10:49:26.888Z,1014.95
2019-04-28T10:50:26.954Z,1014.97
2019-04-28T10:51:27.406Z,1014.91
2019-04-28T10:52:27.085Z,1014.95
2019-04-28T10:53:27.149Z,1014.94
2019-04-28T10:54:27.219Z,1014.92
2019-04-28T10:55:27.286Z,1014.96
2019-04-28T10:56:27.349Z,1014.97
2019-04-28T10:57:27.501Z,1014.95
2019-04-28T10:58:27.477Z,1014.94
2019-04-28T10:59:27.548Z,1014.93
2019-04-28T11:00:27.612Z,1014.90
2019-04-28T11:01:27.673Z,1014.93
2019-04-28T11:02:27.746Z,1014.88
2019-04-28T11:03:27.818Z,1014.91
2019-04-28T11:04:27.868Z,1014.96
2019-04-28T11:05:27.934Z,1014.93
2019-04-28T11:06:28.003Z,1014.99
2019-04-28T11:07:28.460Z,1014.94
2019-04-28T11:08:28.129Z,1014.96
2019-04-28T11:09:30.663Z,1014.93
2019-04-28T11:10:28.261Z,1014.98
2019-04-28T11:11:28.329Z,1014.94
2019-04-28T11:12:28.389Z,1014.98
2019-04-28T11:13:28.470Z,1015.01
2019-04-28T11:14:28.525Z,1014.97
2019-04-28T11:15:28.585Z,1014.96
2019-04-28T11:16:28.655Z,1014.98
2019-04-28T11:17:28.717Z,1015.00
2019-04-28T11:18:28.790Z,1014.93
2019-04-28T11:19:28.864Z,1014.92
2019-04-28T11:20:28.914Z,1014.90
2019-04-28T11:21:28.982Z,1014.95
2019-04-28T11:22:29.047Z,1014.91
2019-04-28T11:23:29.132Z,1014.96
2019-04-28T11:24:29.175Z,1014.93
2019-04-28T11:25:29.246Z,1014.90
2019-04-28T11:26:29.311Z,1014.92
2019-04-28T11:27:29.371Z,1014.99
2019-04-28T11:28:29.442Z,1014.94
2019-04-28T11:29:29.511Z,1014.99
2019-04-28T11:30:29.566Z,1014.94
2019-04-28T11:31:29.635Z,1014.93
2019-04-28T11:32:29.702Z,1014.92
2019-04-28T11:33:29.771Z,1014.89
2019-04-28T11:34:29.846Z,1014.91
2019-04-28T11:35:29.899Z,1014.92
2019-04-28T11:36:29.963Z,1014.90
2019-04-28T11:37:30.034Z,1014.92
2019-04-28T11:38:30.107Z,1014.94
2019-04-28T11:39:30.160Z,1014.88
2019-04-28T11:40:30.223Z,1014.91
2019-04-28T11:41:30.291Z,1014.90
2019-04-28T11:42:30.359Z,1014.87
2019-04-28T11:43:30.431Z,1014.89
2019-04-28T11:44:30.496Z,1014.89
2019-04-28T11:45:30.556Z,1014.90
2019-04-28T11:46:30.627Z,1014.93
2019-04-28T11:47:30.690Z,1014.91
2019-04-28T11:48:30.766Z,1014.91
2019-04-28T11:49:30.828Z,1014.94
2019-04-28T11:50:30.886Z,1014.93
2019-04-28T11:51:30.952Z,1014.91
2019-04-28T11:52:31.016Z,1014.91
2019-04-28T11:53:31.464Z,1014.88
2019-04-28T11:54:31.149Z,1014.86
2019-04-28T11:55:31.216Z,1014.82
2019-04-28T11:56:41.180Z,1014.84
2019-04-28T11:57:31.347Z,1014.84
2019-04-28T11:58:31.413Z,1014.87
2019-04-28T11:59:31.553Z,1014.84
2019-04-28T12:00:31.545Z,1014.86
2019-04-28T12:01:31.620Z,1014.85
2019-04-28T12:02:31.677Z,1014.82
2019-04-28T12:03:31.744Z,1014.86
2019-04-28T12:04:31.816Z,1014.85
2019-04-28T12:05:34.745Z,1014.91
2019-04-28T12:06:31.945Z,1014.86